sensor_id;sensor_type;location;lat;lon;timestamp;pressure;altitude;pressure_sealevel;temperature;humidity
34185;BME280;20454;48.100;11.776;2023-05-27T00:01:03;96048.41;;;17.60;68.07
34185;BME280;20454;48.100;11.776;2023-05-27T00:03:28;96051.22;;;17.60;68.19
34185;BME280;20454;48.100;11.776;2023-05-27T00:05:54;96039.84;;;17.57;68.34
34185;BME280;20454;48.100;11.776;2023-05-27T00:08:20;96045.59;;;17.60;68.02
34185;BME280;20454;48.100;11.776;2023-05-27T00:10:46;96037.88;;;17.57;67.96
34185;BME280;20454;48.100;11.776;2023-05-27T00:13:13;96041.97;;;17.60;68.27
34185;BME280;20454;48.100;11.776;2023-05-27T00:15:40;96029.66;;;17.52;68.32
34185;BME280;20454;48.100;11.776;2023-05-27T00:18:06;96037.16;;;17.60;68.27
34185;BME280;20454;48.100;11.776;2023-05-27T00:20:32;96038.31;;;17.59;68.33
34185;BME280;20454;48.100;11.776;2023-05-27T00:22:58;96033.53;;;17.60;68.21
34185;BME280;20454;48.100;11.776;2023-05-27T00:25:27;96043.13;;;17.59;68.00
34185;BME280;20454;48.100;11.776;2023-05-27T00:27:54;96037.50;;;17.59;68.40
34185;BME280;20454;48.100;11.776;2023-05-27T00:30:20;96039.50;;;17.58;68.25
34185;BME280;20454;48.100;11.776;2023-05-27T00:32:46;96037.50;;;17.59;68.13
34185;BME280;20454;48.100;11.776;2023-05-27T00:35:12;96032.69;;;17.59;68.33
34185;BME280;20454;48.100;11.776;2023-05-27T00:37:38;96039.97;;;17.60;68.28
34185;BME280;20454;48.100;11.776;2023-05-27T00:40:06;96028.69;;;17.60;68.35
34185;BME280;20454;48.100;11.776;2023-05-27T00:42:34;96040.78;;;17.61;68.39
34185;BME280;20454;48.100;11.776;2023-05-27T00:45:00;96042.78;;;17.60;68.35
34185;BME280;20454;48.100;11.776;2023-05-27T00:47:27;96029.44;;;17.57;68.11
34185;BME280;20454;48.100;11.776;2023-05-27T00:49:55;96030.59;;;17.56;68.16
34185;BME280;20454;48.100;11.776;2023-05-27T00:52:21;96043.94;;;17.59;68.19
34185;BME280;20454;48.100;11.776;2023-05-27T00:54:47;96033.88;;;17.58;68.04
34185;BME280;20454;48.100;11.776;2023-05-27T00:57:13;96042.78;;;17.60;68.00
34185;BME280;20454;48.100;11.776;2023-05-27T00:59:39;96031.88;;;17.59;68.00
34185;BME280;20454;48.100;11.776;2023-05-27T01:02:05;96033.53;;;17.60;68.27
34185;BME280;20454;48.100;11.776;2023-05-27T01:04:31;96037.16;;;17.60;68.37
34185;BME280;20454;48.100;11.776;2023-05-27T01:07:08;96037.50;;;17.59;68.01
34185;BME280;20454;48.100;11.776;2023-05-27T01:12:32;96034.69;;;17.59;68.30
34185;BME280;20454;48.100;11.776;2023-05-27T01:15:03;96034.22;;;17.57;68.26
34185;BME280;20454;48.100;11.776;2023-05-27T01:17:31;96024.16;;;17.56;68.14
34185;BME280;20454;48.100;11.776;2023-05-27T01:19:59;96039.16;;;17.60;68.26
34185;BME280;20454;48.100;11.776;2023-05-27T01:22:29;96036.34;;;17.60;68.12
34185;BME280;20454;48.100;11.776;2023-05-27T01:24:55;96030.22;;;17.58;68.15
34185;BME280;20454;48.100;11.776;2023-05-27T01:27:21;96033.41;;;17.56;68.10
34185;BME280;20454;48.100;11.776;2023-05-27T01:29:51;96023.41;;;17.59;68.23
34185;BME280;20454;48.100;11.776;2023-05-27T01:35:28;96025.44;;;17.58;68.28
34185;BME280;20454;48.100;11.776;2023-05-27T01:37:57;96021.44;;;17.59;68.39
34185;BME280;20454;48.100;11.776;2023-05-27T01:40:24;96026.22;;;17.59;68.46
34185;BME280;20454;48.100;11.776;2023-05-27T01:42:51;96029.88;;;17.59;68.21
34185;BME280;20454;48.100;11.776;2023-05-27T01:45:17;96018.97;;;17.58;68.20
34185;BME280;20454;48.100;11.776;2023-05-27T01:47:44;96031.88;;;17.59;68.24
34185;BME280;20454;48.100;11.776;2023-05-27T01:50:10;96020.59;;;17.59;68.31
34185;BME280;20454;48.100;11.776;2023-05-27T01:52:36;96018.63;;;17.59;68.05
34185;BME280;20454;48.100;11.776;2023-05-27T01:55:02;96014.06;;;17.55;68.17
34185;BME280;20454;48.100;11.776;2023-05-27T01:57:30;96014.88;;;17.55;68.14
34185;BME280;20454;48.100;11.776;2023-05-27T01:59:56;96020.50;;;17.55;68.24
34185;BME280;20454;48.100;11.776;2023-05-27T06:00:46;96011.81;;;17.60;68.54
34185;BME280;20454;48.100;11.776;2023-05-27T06:03:12;96007.38;;;17.59;68.20
34185;BME280;20454;48.100;11.776;2023-05-27T06:05:38;96011.81;;;17.60;68.61
34185;BME280;20454;48.100;11.776;2023-05-27T06:08:04;96011.72;;;17.57;68.29
34185;BME280;20454;48.100;11.776;2023-05-27T06:10:29;96002.69;;;17.51;68.40
34185;BME280;20454;48.100;11.776;2023-05-27T06:12:55;96015.81;;;17.59;68.62
34185;BME280;20454;48.100;11.776;2023-05-27T06:15:21;96017.34;;;17.57;68.24
34185;BME280;20454;48.100;11.776;2023-05-27T06:17:47;96004.78;;;17.54;68.31
34185;BME280;20454;48.100;11.776;2023-05-27T06:20:13;96018.16;;;17.57;68.27
34185;BME280;20454;48.100;11.776;2023-05-27T06:22:38;96019.47;;;17.60;68.35
34185;BME280;20454;48.100;11.776;2023-05-27T06:25:05;96020.59;;;17.59;68.29
34185;BME280;20454;48.100;11.776;2023-05-27T06:27:30;96022.28;;;17.60;68.36
34185;BME280;20454;48.100;11.776;2023-05-27T06:29:56;96011.38;;;17.58;68.52
34185;BME280;20454;48.100;11.776;2023-05-27T06:32:22;96023.06;;;17.60;68.49
34185;BME280;20454;48.100;11.776;2023-05-27T06:34:48;96014.63;;;17.60;68.22
34185;BME280;20454;48.100;11.776;2023-05-27T06:37:13;96010.19;;;17.59;68.38
34185;BME280;20454;48.100;11.776;2023-05-27T06:39:39;96011.81;;;17.60;68.29
34185;BME280;20454;48.100;11.776;2023-05-27T06:42:05;96005.38;;;17.60;68.29
34185;BME280;20454;48.100;11.776;2023-05-27T06:44:31;96009.84;;;17.61;68.31
34185;BME280;20454;48.100;11.776;2023-05-27T06:46:56;96014.63;;;17.60;68.59
34185;BME280;20454;48.100;11.776;2023-05-27T06:49:22;96017.44;;;17.60;68.59
34185;BME280;20454;48.100;11.776;2023-05-27T06:51:48;96018.63;;;17.59;68.57
34185;BME280;20454;48.100;11.776;2023-05-27T06:54:14;96011.00;;;17.60;68.21
34185;BME280;20454;48.100;11.776;2023-05-27T06:56:39;96015.47;;;17.61;68.51
34185;BME280;20454;48.100;11.776;2023-05-27T06:59:05;96016.28;;;17.61;68.35
34185;BME280;20454;48.100;11.776;2023-05-27T08:27:02;95976.06;;;17.61;68.49
34185;BME280;20454;48.100;11.776;2023-05-27T08:29:28;95979.69;;;17.61;68.20
34185;BME280;20454;48.100;11.776;2023-05-27T08:31:56;95977.25;;;17.60;68.21
34185;BME280;20454;48.100;11.776;2023-05-27T08:34:22;95974.06;;;17.61;68.38
34185;BME280;20454;48.100;11.776;2023-05-27T08:36:48;95970.44;;;17.61;68.62
34185;BME280;20454;48.100;11.776;2023-05-27T08:39:14;95966.78;;;17.60;68.55
34185;BME280;20454;48.100;11.776;2023-05-27T08:41:40;95960.72;;;17.58;68.38
34185;BME280;20454;48.100;11.776;2023-05-27T08:44:06;95971.25;;;17.61;68.61
34185;BME280;20454;48.100;11.776;2023-05-27T08:46:33;95963.53;;;17.58;68.25
34185;BME280;20454;48.100;11.776;2023-05-27T08:48:59;95974.06;;;17.61;68.42
34185;BME280;20454;48.100;11.776;2023-05-27T08:51:25;95963.97;;;17.60;68.47
34185;BME280;20454;48.100;11.776;2023-05-27T08:53:52;95963.63;;;17.62;68.34
34185;BME280;20454;48.100;11.776;2023-05-27T08:56:22;95970.06;;;17.62;68.45
34185;BME280;20454;48.100;11.776;2023-05-27T08:58:48;95969.25;;;17.62;68.42
34185;BME280;20454;48.100;11.776;2023-05-27T09:01:18;95956.72;;;17.59;68.31
34185;BME280;20454;48.100;11.776;2023-05-27T09:03:44;95960.81;;;17.62;68.53
34185;BME280;20454;48.100;11.776;2023-05-27T09:06:11;95959.97;;;17.61;68.31
34185;BME280;20454;48.100;11.776;2023-05-27T09:08:37;95962.00;;;17.61;68.62
34185;BME280;20454;48.100;11.776;2023-05-27T09:11:02;95959.97;;;17.61;68.55
34185;BME280;20454;48.100;11.776;2023-05-27T09:13:30;95956.72;;;17.59;68.45
34185;BME280;20454;48.100;11.776;2023-05-27T09:16:02;95951.81;;;17.56;68.49
34185;BME280;20454;48.100;11.776;2023-05-27T12:43:11;95802.28;;;17.58;68.06
34185;BME280;20454;48.100;11.776;2023-05-27T12:45:37;95803.94;;;17.59;68.33
34185;BME280;20454;48.100;11.776;2023-05-27T12:48:03;95806.75;;;17.59;68.20
34185;BME280;20454;48.100;11.776;2023-05-27T12:50:29;95801.09;;;17.59;68.01
34185;BME280;20454;48.100;11.776;2023-05-27T12:52:57;95796.31;;;17.59;68.05
34185;BME280;20454;48.100;11.776;2023-05-27T12:55:23;95805.59;;;17.60;68.45
34185;BME280;20454;48.100;11.776;2023-05-27T12:57:51;95800.31;;;17.58;68.13
34185;BME280;20454;48.100;11.776;2023-05-27T13:00:18;95794.69;;;17.58;68.04
34185;BME280;20454;48.100;11.776;2023-05-27T13:02:45;95789.84;;;17.59;68.40
34185;BME280;20454;48.100;11.776;2023-05-27T13:05:15;95777.78;;;17.58;68.12
34185;BME280;20454;48.100;11.776;2023-05-27T13:08:03;95780.59;;;17.58;68.14
34185;BME280;20454;48.100;11.776;2023-05-27T13:10:32;95782.59;;;17.58;68.26
34185;BME280;20454;48.100;11.776;2023-05-27T13:12:59;95772.53;;;17.57;68.15
34185;BME280;20454;48.100;11.776;2023-05-27T13:15:26;95777.78;;;17.58;68.35
34185;BME280;20454;48.100;11.776;2023-05-27T13:17:52;95773.81;;;17.59;68.36
34185;BME280;20454;48.100;11.776;2023-05-27T13:20:20;95767.34;;;17.59;67.97
34185;BME280;20454;48.100;11.776;2023-05-27T13:22:47;95772.16;;;17.58;68.18
34185;BME280;20454;48.100;11.776;2023-05-27T13:25:14;95768.16;;;17.59;68.30
34185;BME280;20454;48.100;11.776;2023-05-27T13:27:41;95758.09;;;17.58;68.35
34185;BME280;20454;48.100;11.776;2023-05-27T13:30:08;95760.91;;;17.58;68.41
34185;BME280;20454;48.100;11.776;2023-05-27T13:32:34;95752.47;;;17.58;68.26
34185;BME280;20454;48.100;11.776;2023-05-27T13:35:01;95760.09;;;17.58;68.22
34185;BME280;20454;48.100;11.776;2023-05-27T13:37:28;95754.44;;;17.58;68.19
34185;BME280;20454;48.100;11.776;2023-05-27T13:39:54;95754.44;;;17.58;68.07
34185;BME280;20454;48.100;11.776;2023-05-27T13:42:21;95757.25;;;17.58;68.26
34185;BME280;20454;48.100;11.776;2023-05-27T13:44:46;95746.00;;;17.58;68.33
34185;BME280;20454;48.100;11.776;2023-05-27T13:47:12;95745.22;;;17.57;68.12
34185;BME280;20454;48.100;11.776;2023-05-27T13:49:38;95755.28;;;17.58;68.01
34185;BME280;20454;48.100;11.776;2023-05-27T13:52:04;95752.47;;;17.58;68.15
34185;BME280;20454;48.100;11.776;2023-05-27T13:54:30;95742.00;;;17.59;68.44
34185;BME280;20454;48.100;11.776;2023-05-27T13:56:55;95737.56;;;17.58;68.09
34185;BME280;20454;48.100;11.776;2023-05-27T13:59:21;95739.19;;;17.59;67.97
34185;BME280;20454;48.100;11.776;2023-05-27T14:01:47;95737.56;;;17.58;67.94
34185;BME280;20454;48.100;11.776;2023-05-27T14:04:15;95739.19;;;17.59;68.23
34185;BME280;20454;48.100;11.776;2023-05-27T14:06:41;95731.16;;;17.57;68.06
34185;BME280;20454;48.100;11.776;2023-05-27T14:09:07;95731.16;;;17.57;68.25
34185;BME280;20454;48.100;11.776;2023-05-27T14:11:33;95727.16;;;17.58;68.15
34185;BME280;20454;48.100;11.776;2023-05-27T14:13:59;95723.50;;;17.58;68.25
34185;BME280;20454;48.100;11.776;2023-05-27T14:16:25;95716.25;;;17.57;67.96
34185;BME280;20454;48.100;11.776;2023-05-27T14:18:51;95725.53;;;17.57;68.24
34185;BME280;20454;48.100;11.776;2023-05-27T14:21:17;95727.16;;;17.58;68.29
34185;BME280;20454;48.100;11.776;2023-05-27T14:23:44;95721.53;;;17.58;68.04
34185;BME280;20454;48.100;11.776;2023-05-27T14:26:10;95711.44;;;17.57;68.04
34185;BME280;20454;48.100;11.776;2023-05-27T14:28:36;95710.63;;;17.57;68.06
34185;BME280;20454;48.100;11.776;2023-05-27T14:31:01;95715.06;;;17.58;67.98
34185;BME280;20454;48.100;11.776;2023-05-27T14:33:27;95720.69;;;17.58;68.39
34185;BME280;20454;48.100;11.776;2023-05-27T14:35:53;95714.25;;;17.57;67.87
34185;BME280;20454;48.100;11.776;2023-05-27T14:38:19;95709.44;;;17.58;68.21
34185;BME280;20454;48.100;11.776;2023-05-27T14:40:46;95713.44;;;17.57;68.21
34185;BME280;20454;48.100;11.776;2023-05-27T14:43:13;95704.19;;;17.56;68.21
34185;BME280;20454;48.100;11.776;2023-05-27T14:45:40;95703.81;;;17.58;68.23
34185;BME280;20454;48.100;11.776;2023-05-27T14:48:06;95700.19;;;17.57;68.24
34185;BME280;20454;48.100;11.776;2023-05-27T14:50:32;95696.53;;;17.57;67.92
34185;BME280;20454;48.100;11.776;2023-05-27T14:52:59;95694.56;;;17.57;67.86
34185;BME280;20454;48.100;11.776;2023-05-27T14:55:25;95703.44;;;17.59;68.17
34185;BME280;20454;48.100;11.776;2023-05-27T14:57:51;95690.91;;;17.57;67.96
34185;BME280;20454;48.100;11.776;2023-05-27T15:00:17;95698.19;;;17.58;68.28
34185;BME280;20454;48.100;11.776;2023-05-27T15:02:43;95694.19;;;17.59;67.98
34185;BME280;20454;48.100;11.776;2023-05-27T15:05:10;95687.75;;;17.58;68.06
34185;BME280;20454;48.100;11.776;2023-05-27T15:07:37;95698.19;;;17.58;68.04
34185;BME280;20454;48.100;11.776;2023-05-27T15:10:04;95694.09;;;17.55;68.28
34185;BME280;20454;48.100;11.776;2023-05-27T15:12:45;95690.13;;;17.56;68.08
34185;BME280;20454;48.100;11.776;2023-05-27T15:15:14;95695.38;;;17.58;68.15
34185;BME280;20454;48.100;11.776;2023-05-27T15:17:41;95693.72;;;17.57;68.21
34185;BME280;20454;48.100;11.776;2023-05-27T15:20:10;95690.91;;;17.57;67.98
34185;BME280;20454;48.100;11.776;2023-05-27T15:22:37;95695.38;;;17.58;67.92
34185;BME280;20454;48.100;11.776;2023-05-27T15:25:03;95697.38;;;17.57;67.95
34185;BME280;20454;48.100;11.776;2023-05-27T15:27:29;95688.94;;;17.57;68.13
34185;BME280;20454;48.100;11.776;2023-05-27T15:29:55;95685.28;;;17.57;68.03
34185;BME280;20454;48.100;11.776;2023-05-27T15:32:20;95696.53;;;17.57;67.93
34185;BME280;20454;48.100;11.776;2023-05-27T15:34:46;95693.72;;;17.57;68.00
34185;BME280;20454;48.100;11.776;2023-05-27T15:37:12;95684.94;;;17.58;68.34
34185;BME280;20454;48.100;11.776;2023-05-27T15:39:38;95682.47;;;17.57;68.13
34185;BME280;20454;48.100;11.776;2023-05-27T15:42:04;95676.06;;;17.56;67.90
34185;BME280;20454;48.100;11.776;2023-05-27T15:44:30;95682.47;;;17.57;67.99
34185;BME280;20454;48.100;11.776;2023-05-27T15:46:56;95682.47;;;17.57;68.17
34185;BME280;20454;48.100;11.776;2023-05-27T15:49:22;95680.50;;;17.57;68.21
34185;BME280;20454;48.100;11.776;2023-05-27T15:51:48;95662.78;;;17.57;68.30
34185;BME280;20454;48.100;11.776;2023-05-27T15:54:13;95678.88;;;17.56;68.25
34185;BME280;20454;48.100;11.776;2023-05-27T15:56:39;95672.84;;;17.58;68.37
34185;BME280;20454;48.100;11.776;2023-05-27T15:59:07;95678.88;;;17.56;67.95
34185;BME280;20454;48.100;11.776;2023-05-27T16:01:34;95674.03;;;17.57;68.29
34185;BME280;20454;48.100;11.776;2023-05-27T16:04:02;95671.22;;;17.57;67.85
34185;BME280;20454;48.100;11.776;2023-05-27T16:06:28;95672.06;;;17.57;68.23
34185;BME280;20454;48.100;11.776;2023-05-27T16:08:54;95669.25;;;17.57;68.05
34185;BME280;20454;48.100;11.776;2023-05-27T16:11:20;95670.44;;;17.56;68.17
34185;BME280;20454;48.100;11.776;2023-05-27T16:13:46;95667.63;;;17.56;68.01
34185;BME280;20454;48.100;11.776;2023-05-27T16:16:12;95676.06;;;17.56;68.27
34185;BME280;20454;48.100;11.776;2023-05-27T16:18:38;95662.78;;;17.57;68.19
34185;BME280;20454;48.100;11.776;2023-05-27T16:21:03;95667.63;;;17.56;67.91
34185;BME280;20454;48.100;11.776;2023-05-27T16:23:29;95663.63;;;17.57;68.01
34185;BME280;20454;48.100;11.776;2023-05-27T16:25:55;95663.63;;;17.57;68.20
34185;BME280;20454;48.100;11.776;2023-05-27T16:28:21;95664.78;;;17.56;68.13
34185;BME280;20454;48.100;11.776;2023-05-27T16:30:47;95653.53;;;17.56;68.30
34185;BME280;20454;48.100;11.776;2023-05-27T16:33:13;95650.72;;;17.56;67.77
34185;BME280;20454;48.100;11.776;2023-05-27T16:35:39;95652.72;;;17.56;68.12
34185;BME280;20454;48.100;11.776;2023-05-27T16:38:05;95648.28;;;17.55;67.92
34185;BME280;20454;48.100;11.776;2023-05-27T16:40:30;95653.53;;;17.56;68.19
34185;BME280;20454;48.100;11.776;2023-05-27T16:42:56;95642.28;;;17.56;67.91
34185;BME280;20454;48.100;11.776;2023-05-27T16:45:22;95652.72;;;17.56;67.85
34185;BME280;20454;48.100;11.776;2023-05-27T16:47:48;95647.91;;;17.56;67.88
34185;BME280;20454;48.100;11.776;2023-05-27T16:50:14;95652.72;;;17.56;68.17
34185;BME280;20454;48.100;11.776;2023-05-27T16:52:40;95646.25;;;17.55;68.25
34185;BME280;20454;48.100;11.776;2023-05-27T16:55:06;95652.72;;;17.56;68.20
34185;BME280;20454;48.100;11.776;2023-05-27T16:57:35;95643.44;;;17.55;68.04
34185;BME280;20454;48.100;11.776;2023-05-27T17:00:05;95647.91;;;17.56;67.84
34185;BME280;20454;48.100;11.776;2023-05-27T17:02:31;95651.53;;;17.57;68.22
34185;BME280;20454;48.100;11.776;2023-05-27T17:04:57;95649.06;;;17.55;67.96
34185;BME280;20454;48.100;11.776;2023-05-27T17:07:23;95647.91;;;17.56;68.04
34185;BME280;20454;48.100;11.776;2023-05-27T17:09:48;95645.09;;;17.56;68.10
34185;BME280;20454;48.100;11.776;2023-05-27T17:12:14;95638.28;;;17.57;68.14
34185;BME280;20454;48.100;11.776;2023-05-27T17:14:40;95633.00;;;17.56;68.24
34185;BME280;20454;48.100;11.776;2023-05-27T17:17:06;95637.81;;;17.55;68.15
34185;BME280;20454;48.100;11.776;2023-05-27T17:19:34;95634.66;;;17.57;67.91
34185;BME280;20454;48.100;11.776;2023-05-27T17:22:01;95635.81;;;17.56;67.81
34185;BME280;20454;48.100;11.776;2023-05-27T17:24:27;95640.63;;;17.55;67.96
34185;BME280;20454;48.100;11.776;2023-05-27T17:26:52;95642.28;;;17.56;67.86
34185;BME280;20454;48.100;11.776;2023-05-27T17:29:19;95643.44;;;17.55;67.96
34185;BME280;20454;48.100;11.776;2023-05-27T17:31:45;95651.09;;;17.55;68.18
34185;BME280;20454;48.100;11.776;2023-05-27T17:34:12;95645.09;;;17.56;67.82
34185;BME280;20454;48.100;11.776;2023-05-27T17:36:38;95647.09;;;17.56;67.95
34185;BME280;20454;48.100;11.776;2023-05-27T17:39:03;95650.72;;;17.56;67.80
34185;BME280;20454;48.100;11.776;2023-05-27T17:41:30;95643.09;;;17.57;67.78
34185;BME280;20454;48.100;11.776;2023-05-27T17:43:56;95646.25;;;17.55;67.92
34185;BME280;20454;48.100;11.776;2023-05-27T17:46:22;95643.44;;;17.55;68.17
34185;BME280;20454;48.100;11.776;2023-05-27T17:48:48;95649.91;;;17.56;67.95
34185;BME280;20454;48.100;11.776;2023-05-27T17:51:14;95651.53;;;17.57;67.99
34185;BME280;20454;48.100;11.776;2023-05-27T17:53:39;95653.91;;;17.55;68.16
34185;BME280;20454;48.100;11.776;2023-05-27T17:56:05;95654.69;;;17.55;67.99
34185;BME280;20454;48.100;11.776;2023-05-27T17:58:31;95653.91;;;17.55;68.00
34185;BME280;20454;48.100;11.776;2023-05-27T18:00:57;95654.69;;;17.55;67.96
34185;BME280;20454;48.100;11.776;2023-05-27T19:18:36;95661.31;;;17.47;67.77
34185;BME280;20454;48.100;11.776;2023-05-27T19:21:02;95681.19;;;17.54;67.69
34185;BME280;20454;48.100;11.776;2023-05-27T19:23:28;95677.59;;;17.54;68.11
34185;BME280;20454;48.100;11.776;2023-05-27T19:25:54;95690.47;;;17.55;68.07
34185;BME280;20454;48.100;11.776;2023-05-27T19:28:19;95677.19;;;17.55;67.79
34185;BME280;20454;48.100;11.776;2023-05-27T19:30:45;95681.19;;;17.54;67.96
34185;BME280;20454;48.100;11.776;2023-05-27T19:33:11;95682.03;;;17.55;68.03
34185;BME280;20454;48.100;11.776;2023-05-27T19:35:40;95677.94;;;17.52;67.49
34185;BME280;20454;48.100;11.776;2023-05-27T19:38:06;95683.66;;;17.56;67.64
34185;BME280;20454;48.100;11.776;2023-05-27T19:40:32;95678.38;;;17.54;67.65
34185;BME280;20454;48.100;11.776;2023-05-27T19:42:59;95682.84;;;17.55;67.68
34185;BME280;20454;48.100;11.776;2023-05-27T19:45:25;95682.84;;;17.55;67.73
34185;BME280;20454;48.100;11.776;2023-05-27T19:47:51;95678.03;;;17.56;67.67
34185;BME280;20454;48.100;11.776;2023-05-27T19:50:17;95681.19;;;17.54;67.91
34185;BME280;20454;48.100;11.776;2023-05-27T19:52:44;95679.56;;;17.53;68.09
34185;BME280;20454;48.100;11.776;2023-05-27T19:55:10;95676.41;;;17.55;67.73
34185;BME280;20454;48.100;11.776;2023-05-27T19:57:37;95681.19;;;17.54;67.92
34185;BME280;20454;48.100;11.776;2023-05-27T20:00:03;95677.94;;;17.52;67.81
34185;BME280;20454;48.100;11.776;2023-05-27T20:02:31;95673.59;;;17.55;67.72
34185;BME280;20454;48.100;11.776;2023-05-27T20:04:57;95679.22;;;17.55;67.94
34185;BME280;20454;48.100;11.776;2023-05-27T20:07:23;95682.03;;;17.55;67.88
34185;BME280;20454;48.100;11.776;2023-05-27T20:09:49;95679.22;;;17.55;67.68
34185;BME280;20454;48.100;11.776;2023-05-27T20:12:14;95679.22;;;17.55;68.03
34185;BME280;20454;48.100;11.776;2023-05-27T20:14:40;95673.59;;;17.55;67.96
34185;BME280;20454;48.100;11.776;2023-05-27T20:17:06;95675.97;;;17.53;68.04
34185;BME280;20454;48.100;11.776;2023-05-27T20:19:32;95688.47;;;17.55;68.01
34185;BME280;20454;48.100;11.776;2023-05-27T20:21:58;95682.03;;;17.55;68.11
34185;BME280;20454;48.100;11.776;2023-05-27T20:24:24;95680.41;;;17.54;67.96
34185;BME280;20454;48.100;11.776;2023-05-27T20:26:50;95679.22;;;17.55;67.64
34185;BME280;20454;48.100;11.776;2023-05-27T20:29:16;95678.03;;;17.56;67.69
34185;BME280;20454;48.100;11.776;2023-05-27T20:31:42;95674.38;;;17.55;67.73
34185;BME280;20454;48.100;11.776;2023-05-27T20:34:08;95680.84;;;17.56;67.86
34185;BME280;20454;48.100;11.776;2023-05-27T20:36:34;95681.19;;;17.54;67.86
34185;BME280;20454;48.100;11.776;2023-05-27T20:38:59;95684.00;;;17.54;68.13
34185;BME280;20454;48.100;11.776;2023-05-27T20:41:26;95677.19;;;17.55;67.38
34185;BME280;20454;48.100;11.776;2023-05-27T20:43:52;95672.41;;;17.56;67.88
34185;BME280;20454;48.100;11.776;2023-05-27T20:46:25;95672.41;;;17.56;67.73
34185;BME280;20454;48.100;11.776;2023-05-27T20:48:54;95672.75;;;17.54;67.71
34185;BME280;20454;48.100;11.776;2023-05-27T20:51:22;95678.03;;;17.56;67.77
34185;BME280;20454;48.100;11.776;2023-05-27T20:53:48;95674.38;;;17.55;67.66
34185;BME280;20454;48.100;11.776;2023-05-27T20:56:14;95677.19;;;17.55;68.13
34185;BME280;20454;48.100;11.776;2023-05-27T20:58:40;95679.56;;;17.53;67.81
34185;BME280;20454;48.100;11.776;2023-05-27T21:01:05;95671.56;;;17.55;68.04
34185;BME280;20454;48.100;11.776;2023-05-27T21:03:31;95667.97;;;17.55;68.14
34185;BME280;20454;48.100;11.776;2023-05-27T21:05:59;95669.84;;;17.51;67.75
34185;BME280;20454;48.100;11.776;2023-05-27T21:08:24;95670.78;;;17.55;68.02
34185;BME280;20454;48.100;11.776;2023-05-27T21:10:50;95673.59;;;17.55;68.03
34185;BME280;20454;48.100;11.776;2023-05-27T21:13:16;95667.97;;;17.55;68.02
34185;BME280;20454;48.100;11.776;2023-05-27T21:15:42;95665.16;;;17.55;67.72
34185;BME280;20454;48.100;11.776;2023-05-27T21:18:07;95660.31;;;17.55;67.95
34185;BME280;20454;48.100;11.776;2023-05-27T21:20:33;95645.97;;;17.45;68.16
34185;BME280;20454;48.100;11.776;2023-05-27T21:22:59;95657.50;;;17.55;67.76
34185;BME280;20454;48.100;11.776;2023-05-27T21:25:25;95650.63;;;17.53;67.89
34185;BME280;20454;48.100;11.776;2023-05-27T21:27:50;95649.06;;;17.55;68.03
34185;BME280;20454;48.100;11.776;2023-05-27T21:30:16;95648.28;;;17.55;67.76
34185;BME280;20454;48.100;11.776;2023-05-27T21:32:42;95639.00;;;17.54;67.91
34185;BME280;20454;48.100;11.776;2023-05-27T21:35:08;95651.88;;;17.55;67.71
34185;BME280;20454;48.100;11.776;2023-05-27T21:37:34;95643.44;;;17.55;68.15
34185;BME280;20454;48.100;11.776;2023-05-27T21:39:59;95643.44;;;17.55;67.97
34185;BME280;20454;48.100;11.776;2023-05-27T21:42:25;95644.28;;;17.56;67.77
34185;BME280;20454;48.100;11.776;2023-05-27T21:44:51;95644.63;;;17.54;68.13
34185;BME280;20454;48.100;11.776;2023-05-27T21:47:17;95647.44;;;17.54;68.02
34185;BME280;20454;48.100;11.776;2023-05-27T21:49:42;95648.28;;;17.55;67.83
34185;BME280;20454;48.100;11.776;2023-05-27T21:52:08;95646.25;;;17.55;68.16
34185;BME280;20454;48.100;11.776;2023-05-27T21:54:34;95640.63;;;17.55;67.78
34185;BME280;20454;48.100;11.776;2023-05-27T21:57:00;95645.44;;;17.55;68.17
34185;BME280;20454;48.100;11.776;2023-05-27T21:59:25;95647.44;;;17.54;67.90
34185;BME280;20454;48.100;11.776;2023-05-27T22:01:51;95642.63;;;17.55;67.89
34185;BME280;20454;48.100;11.776;2023-05-27T22:04:17;95647.09;;;17.56;67.91
34185;BME280;20454;48.100;11.776;2023-05-27T22:06:43;95646.25;;;17.55;67.79
34185;BME280;20454;48.100;11.776;2023-05-27T22:09:09;95639.38;;;17.53;68.04
34185;BME280;20454;48.100;11.776;2023-05-27T22:11:36;95640.63;;;17.55;68.06
34185;BME280;20454;48.100;11.776;2023-05-27T22:14:04;95629.38;;;17.55;67.80
34185;BME280;20454;48.100;11.776;2023-05-27T22:16:30;95632.19;;;17.55;67.85
34185;BME280;20454;48.100;11.776;2023-05-27T22:18:56;95632.56;;;17.54;68.14
34185;BME280;20454;48.100;11.776;2023-05-27T22:21:22;95632.91;;;17.52;68.07
34185;BME280;20454;48.100;11.776;2023-05-27T22:23:47;95629.38;;;17.55;67.88
34185;BME280;20454;48.100;11.776;2023-05-27T22:26:13;95626.56;;;17.55;67.99
34185;BME280;20454;48.100;11.776;2023-05-27T22:28:39;95620.75;;;17.48;67.79
34185;BME280;20454;48.100;11.776;2023-05-27T22:31:04;95627.75;;;17.54;67.85
34185;BME280;20454;48.100;11.776;2023-05-27T22:33:31;95624.56;;;17.56;68.14
34185;BME280;20454;48.100;11.776;2023-05-27T22:35:56;95615.31;;;17.55;67.74
34185;BME280;20454;48.100;11.776;2023-05-27T22:38:22;95618.13;;;17.55;68.11
34185;BME280;20454;48.100;11.776;2023-05-27T22:40:48;95618.13;;;17.55;67.74
34185;BME280;20454;48.100;11.776;2023-05-27T22:43:14;95622.13;;;17.54;68.10
34185;BME280;20454;48.100;11.776;2023-05-27T22:45:40;95610.50;;;17.56;68.00
34185;BME280;20454;48.100;11.776;2023-05-27T22:48:05;95612.50;;;17.55;67.97
34185;BME280;20454;48.100;11.776;2023-05-27T22:50:31;95609.66;;;17.55;67.87
34185;BME280;20454;48.100;11.776;2023-05-27T22:52:57;95606.84;;;17.55;67.68
34185;BME280;20454;48.100;11.776;2023-05-27T22:55:23;95601.22;;;17.55;67.93